Time,TemperatureF,DewpointF,PressureIn,WindDirection,WindDirectionDegrees,WindSpeedMPH,WindSpeedGustMPH,Humidity,HourlyPrecipIn,Conditions,Clouds,dailyrainin,SoftwareType,DateUTC
2013-02-16 00:00:00,20.4,14.6,30.13,West,263,0.0,11.0,78,0.00,,---,0.00,VWS V14.01,2013-02-16 05:00:00,
2013-02-16 00:01:00,20.4,14.6,30.13,West,263,0.0,11.0,78,0.00,,---,0.00,VWS V14.01,2013-02-16 05:01:00,
2013-02-16 00:06:00,20.2,14.4,30.13,West,276,1.0,2.0,78,0.00,,---,0.00,VWS V14.01,2013-02-16 05:06:00,
2013-02-16 00:11:00,20.1,14.6,30.12,WNW,282,1.0,4.0,79,0.00,,---,0.00,VWS V14.01,2013-02-16 05:11:00,
2013-02-16 00:16:00,20.0,14.3,30.12,WNW,285,0.0,4.0,78,0.00,,---,0.00,VWS V14.01,2013-02-16 05:16:00,
2013-02-16 00:21:00,19.8,14.4,30.12,WNW,295,1.0,4.0,79,0.00,,---,0.00,VWS V14.01,2013-02-16 05:21:00,
2013-02-16 00:24:00,19.7,14.3,30.12,WNW,302,3.0,4.0,79,0.00,,---,0.00,VWS V14.01,2013-02-16 05:24:00,
2013-02-16 00:29:00,19.6,14.2,30.12,West,280,1.0,4.0,79,0.00,,---,0.00,VWS V14.01,2013-02-16 05:29:00,
2013-02-16 00:34:00,19.4,14.0,30.12,SW,226,1.0,4.0,79,0.00,,---,0.00,VWS V14.01,2013-02-16 05:34:00,
2013-02-16 00:39:00,19.2,14.1,30.12,WSW,252,1.0,4.0,80,0.00,,---,0.00,VWS V14.01,2013-02-16 05:39:00,
2013-02-16 00:44:00,18.9,14.0,30.12,WSW,257,0.0,4.0,81,0.00,,---,0.00,VWS V14.01,2013-02-16 05:44:00,
2013-02-16 00:49:00,18.7,13.9,30.12,West,263,0.0,4.0,81,0.00,,---,0.00,VWS V14.01,2013-02-16 05:49:00,
2013-02-16 00:55:00,18.5,13.9,30.12,West,264,0.0,4.0,82,0.00,,---,0.00,VWS V14.01,2013-02-16 05:55:00,
2013-02-16 01:00:00,18.5,13.9,30.12,West,276,0.0,4.0,82,0.00,,---,0.00,VWS V14.01,2013-02-16 06:00:00,
2013-02-16 01:05:00,18.3,13.7,30.12,West,276,0.0,1.0,82,0.00,,---,0.00,VWS V14.01,2013-02-16 06:05:00,
2013-02-16 01:10:00,18.1,13.8,30.12,West,276,0.0,1.0,83,0.00,,---,0.00,VWS V14.01,2013-02-16 06:10:00,
2013-02-16 01:15:00,17.8,13.5,30.12,West,276,0.0,1.0,83,0.00,,---,0.00,VWS V14.01,2013-02-16 06:15:00,
2013-02-16 01:20:00,17.6,13.6,30.12,West,260,0.0,1.0,84,0.00,,---,0.00,VWS V14.01,2013-02-16 06:20:00,
2013-02-16 01:25:00,17.6,13.6,30.12,West,260,0.0,1.0,84,0.00,,---,0.00,VWS V14.01,2013-02-16 06:25:00,
2013-02-16 01:30:00,17.4,13.4,30.12,West,260,0.0,1.0,84,0.00,,---,0.00,VWS V14.01,2013-02-16 06:30:00,
2013-02-16 01:35:00,17.5,13.8,30.12,West,271,0.0,2.0,85,0.00,,---,0.00,VWS V14.01,2013-02-16 06:35:00,
2013-02-16 01:40:00,17.5,13.5,30.12,West,270,0.0,2.0,84,0.00,,---,0.00,VWS V14.01,2013-02-16 06:40:00,
2013-02-16 01:45:00,17.5,13.5,30.12,West,276,1.0,2.0,84,0.00,,---,0.00,VWS V14.01,2013-02-16 06:45:00,
2013-02-16 01:51:00,17.5,13.5,30.12,West,276,0.0,2.0,84,0.00,,---,0.00,VWS V14.01,2013-02-16 06:51:00,
2013-02-16 01:56:00,17.6,13.6,30.12,West,277,0.0,2.0,84,0.00,,---,0.00,VWS V14.01,2013-02-16 06:56:00,
2013-02-16 02:01:00,17.6,13.6,30.12,West,276,0.0,2.0,84,0.00,,---,0.00,VWS V14.01,2013-02-16 07:01:00,
2013-02-16 02:06:00,17.5,13.5,30.11,West,277,0.0,0.0,84,0.00,,---,0.00,VWS V14.01,2013-02-16 07:06:00,
2013-02-16 02:11:00,17.2,13.2,30.11,West,276,0.0,0.0,84,0.00,,---,0.00,VWS V14.01,2013-02-16 07:11:00,
2013-02-16 02:16:00,17.2,13.5,30.11,West,276,0.0,0.0,85,0.00,,---,0.00,VWS V14.01,2013-02-16 07:16:00,
2013-02-16 02:21:00,17.3,13.6,30.11,SW,236,1.0,1.0,85,0.00,,---,0.00,VWS V14.01,2013-02-16 07:21:00,
2013-02-16 02:26:00,17.3,13.6,30.11,SW,236,0.0,1.0,85,0.00,,---,0.00,VWS V14.01,2013-02-16 07:26:00,
2013-02-16 02:32:00,17.3,13.8,30.11,SW,236,0.0,1.0,86,0.00,,---,0.00,VWS V14.01,2013-02-16 07:32:00,
2013-02-16 02:37:00,17.3,13.6,30.11,SW,236,0.0,1.0,85,0.00,,---,0.00,VWS V14.01,2013-02-16 07:37:00,
2013-02-16 02:42:00,17.0,13.3,30.10,SW,236,0.0,1.0,85,0.00,,---,0.00,VWS V14.01,2013-02-16 07:42:00,
2013-02-16 02:47:00,16.9,13.2,30.10,SW,236,0.0,1.0,85,0.00,,---,0.00,VWS V14.01,2013-02-16 07:47:00,
2013-02-16 02:52:00,16.7,13.2,30.10,East,85,0.0,1.0,86,0.00,,---,0.00,VWS V14.01,2013-02-16 07:52:00,
2013-02-16 02:57:00,17.0,13.8,30.09,East,85,1.0,2.0,87,0.00,,---,0.00,VWS V14.01,2013-02-16 07:57:00,
2013-02-16 03:02:00,17.2,14.0,30.09,East,86,0.0,0.0,87,0.00,,---,0.00,VWS V14.01,2013-02-16 08:02:00,
2013-02-16 03:07:00,17.0,13.5,30.10,East,86,0.0,0.0,86,0.00,,---,0.00,VWS V14.01,2013-02-16 08:07:00,
2013-02-16 03:12:00,16.8,13.4,30.10,SW,228,1.0,1.0,86,0.00,,---,0.00,VWS V14.01,2013-02-16 08:12:00,
2013-02-16 03:18:00,16.5,13.3,30.10,WSW,239,1.0,1.0,87,0.00,,---,0.00,VWS V14.01,2013-02-16 08:18:00,
2013-02-16 03:23:00,16.3,13.4,30.10,WSW,248,0.0,1.0,88,0.00,,---,0.00,VWS V14.01,2013-02-16 08:23:00,
2013-02-16 03:28:00,16.2,13.3,30.10,WSW,249,0.0,1.0,88,0.00,,---,0.00,VWS V14.01,2013-02-16 08:28:00,
2013-02-16 03:33:00,16.0,13.1,30.09,South,176,0.0,1.0,88,0.00,,---,0.00,VWS V14.01,2013-02-16 08:33:00,
2013-02-16 03:38:00,16.0,13.3,30.09,SE,146,0.0,1.0,89,0.00,,---,0.00,VWS V14.01,2013-02-16 08:38:00,
2013-02-16 03:43:00,16.0,13.3,30.09,SSE,147,0.0,1.0,89,0.00,,---,0.00,VWS V14.01,2013-02-16 08:43:00,
2013-02-16 03:48:00,15.8,12.9,30.09,SSE,147,0.0,1.0,88,0.00,,---,0.00,VWS V14.01,2013-02-16 08:48:00,
2013-02-16 03:53:00,15.6,12.7,30.09,SE,146,0.0,1.0,88,0.00,,---,0.00,VWS V14.01,2013-02-16 08:53:00,
2013-02-16 03:58:00,15.6,12.9,30.09,SE,146,0.0,1.0,89,0.00,,---,0.00,VWS V14.01,2013-02-16 08:58:00,
2013-02-16 04:03:00,15.4,12.7,30.09,SW,219,0.0,1.0,89,0.00,,---,0.00,VWS V14.01,2013-02-16 09:03:00,
2013-02-16 04:09:00,15.2,12.6,30.09,SW,219,0.0,1.0,89,0.00,,---,0.00,VWS V14.01,2013-02-16 09:09:00,
2013-02-16 04:14:00,15.0,12.4,30.09,SW,219,0.0,1.0,89,0.00,,---,0.00,VWS V14.01,2013-02-16 09:14:00,
2013-02-16 04:19:00,14.7,12.1,30.09,SSE,164,1.0,1.0,89,0.00,,---,0.00,VWS V14.01,2013-02-16 09:19:00,
2013-02-16 04:24:00,14.8,12.4,30.09,SSE,165,1.0,1.0,90,0.00,,---,0.00,VWS V14.01,2013-02-16 09:24:00,
2013-02-16 04:29:00,15.0,12.6,30.09,South,170,1.0,1.0,90,0.00,,---,0.00,VWS V14.01,2013-02-16 09:29:00,
2013-02-16 04:34:00,15.4,13.2,30.09,SW,226,1.0,1.0,91,0.00,,---,0.00,VWS V14.01,2013-02-16 09:34:00,
2013-02-16 04:39:00,15.6,13.2,30.09,SW,231,1.0,2.0,90,0.00,,---,0.00,VWS V14.01,2013-02-16 09:39:00,
2013-02-16 04:44:00,15.8,13.4,30.09,SW,235,1.0,2.0,90,0.00,,---,0.00,VWS V14.01,2013-02-16 09:44:00,
2013-02-16 04:49:00,16.0,13.6,30.09,SW,221,1.0,2.0,90,0.00,,---,0.00,VWS V14.01,2013-02-16 09:49:00,
2013-02-16 04:54:00,16.0,13.3,30.09,SW,221,0.0,2.0,89,0.00,,---,0.00,VWS V14.01,2013-02-16 09:54:00,
2013-02-16 05:00:00,16.0,13.3,30.08,SW,222,0.0,2.0,89,0.00,,---,0.00,VWS V14.01,2013-02-16 10:00:00,
2013-02-16 05:05:00,15.6,12.7,30.08,SW,222,0.0,0.0,88,0.00,,---,0.00,VWS V14.01,2013-02-16 10:05:00,
2013-02-16 05:10:00,15.2,12.3,30.08,ESE,109,1.0,1.0,88,0.00,,---,0.00,VWS V14.01,2013-02-16 10:10:00,
2013-02-16 05:15:00,15.3,12.6,30.08,ESE,108,0.0,1.0,89,0.00,,---,0.00,VWS V14.01,2013-02-16 10:15:00,
2013-02-16 05:20:00,15.2,12.6,30.08,ESE,108,0.0,1.0,89,0.00,,---,0.00,VWS V14.01,2013-02-16 10:20:00,
2013-02-16 05:25:00,14.9,12.2,30.08,ESE,109,0.0,1.0,89,0.00,,---,0.00,VWS V14.01,2013-02-16 10:25:00,
2013-02-16 05:30:00,14.4,11.8,30.08,ESE,108,0.0,1.0,89,0.00,,---,0.00,VWS V14.01,2013-02-16 10:30:00,
2013-02-16 05:35:00,14.1,11.5,30.08,ESE,109,0.0,1.0,89,0.00,,---,0.00,VWS V14.01,2013-02-16 10:35:00,
2013-02-16 05:40:00,14.0,11.6,30.08,ESE,109,0.0,1.0,90,0.00,,---,0.00,VWS V14.01,2013-02-16 10:40:00,
2013-02-16 05:45:00,13.9,11.5,30.08,ESE,108,0.0,1.0,90,0.00,,---,0.00,VWS V14.01,2013-02-16 10:45:00,
2013-02-16 05:51:00,13.8,11.4,30.08,ESE,109,0.0,1.0,90,0.00,,---,0.00,VWS V14.01,2013-02-16 10:51:00,
2013-02-16 05:56:00,13.7,11.3,30.08,ESE,109,0.0,1.0,90,0.00,,---,0.00,VWS V14.01,2013-02-16 10:56:00,
2013-02-16 06:01:00,14.1,12.0,30.07,ESE,108,0.0,1.0,91,0.00,,---,0.00,VWS V14.01,2013-02-16 11:01:00,
2013-02-16 06:06:00,14.7,12.8,30.07,ESE,110,0.0,1.0,92,0.00,,---,0.00,VWS V14.01,2013-02-16 11:06:00,
2013-02-16 06:11:00,14.9,12.8,30.07,South,180,0.0,1.0,91,0.00,,---,0.00,VWS V14.01,2013-02-16 11:11:00,
2013-02-16 06:16:00,15.2,13.3,30.07,SW,217,1.0,1.0,92,0.00,,---,0.00,VWS V14.01,2013-02-16 11:16:00,
2013-02-16 06:21:00,15.5,13.6,30.07,SSW,201,1.0,2.0,92,0.00,,---,0.00,VWS V14.01,2013-02-16 11:21:00,
2013-02-16 06:26:00,15.9,14.0,30.07,South,177,1.0,2.0,92,0.00,,---,0.00,VWS V14.01,2013-02-16 11:26:00,
2013-02-16 06:31:00,16.1,14.2,30.07,SSE,148,2.0,3.0,92,0.00,,---,0.00,VWS V14.01,2013-02-16 11:31:00,
2013-02-16 06:37:00,16.4,14.2,30.07,SSW,211,2.0,3.0,91,0.00,,---,0.00,VWS V14.01,2013-02-16 11:37:00,
2013-02-16 06:42:00,16.6,14.4,30.07,SSW,205,1.0,4.0,91,0.00,,---,0.00,VWS V14.01,2013-02-16 11:42:00,
2013-02-16 06:47:00,16.8,14.6,30.07,SSW,203,2.0,4.0,91,0.00,,---,0.00,VWS V14.01,2013-02-16 11:47:00,
2013-02-16 06:52:00,16.9,14.7,30.06,South,183,2.0,4.0,91,0.00,,---,0.00,VWS V14.01,2013-02-16 11:52:00,
2013-02-16 06:57:00,17.0,14.6,30.06,South,169,1.0,4.0,90,0.00,,---,0.00,VWS V14.01,2013-02-16 11:57:00,
2013-02-16 07:02:00,17.1,14.7,30.06,SSW,209,2.0,2.0,90,0.00,,---,0.00,VWS V14.01,2013-02-16 12:02:00,
2013-02-16 07:07:00,17.3,14.9,30.06,SSW,211,2.0,3.0,90,0.00,,---,0.00,VWS V14.01,2013-02-16 12:07:00,
2013-02-16 07:12:00,17.4,15.0,30.06,SSW,200,2.0,4.0,90,0.00,,---,0.00,VWS V14.01,2013-02-16 12:12:00,
2013-02-16 07:18:00,17.5,15.1,30.06,SSW,207,2.0,4.0,90,0.00,,---,0.00,VWS V14.01,2013-02-16 12:18:00,
2013-02-16 07:23:00,17.6,15.2,30.06,SSW,212,2.0,4.0,90,0.00,,---,0.00,VWS V14.01,2013-02-16 12:23:00,
2013-02-16 07:28:00,17.7,15.3,30.06,SW,217,2.0,4.0,90,0.00,,---,0.00,VWS V14.01,2013-02-16 12:28:00,
2013-02-16 07:33:00,17.7,15.3,30.06,SSW,210,2.0,4.0,90,0.00,,---,0.00,VWS V14.01,2013-02-16 12:33:00,
2013-02-16 07:38:00,17.8,15.4,30.06,SW,214,2.0,4.0,90,0.00,,---,0.00,VWS V14.01,2013-02-16 12:38:00,
2013-02-16 07:43:00,17.8,15.4,30.06,SW,229,1.0,4.0,90,0.00,,---,0.00,VWS V14.01,2013-02-16 12:43:00,
2013-02-16 07:48:00,17.8,15.1,30.06,SSW,211,0.0,4.0,89,0.00,,---,0.00,VWS V14.01,2013-02-16 12:48:00,
2013-02-16 07:53:00,17.8,15.1,30.06,SSW,212,0.0,4.0,89,0.00,,---,0.00,VWS V14.01,2013-02-16 12:53:00,
2013-02-16 07:58:00,17.9,15.2,30.06,SW,217,1.0,4.0,89,0.00,,---,0.00,VWS V14.01,2013-02-16 12:58:00,
2013-02-16 08:04:00,18.0,15.6,30.06,SW,217,1.0,1.0,90,0.00,,---,0.00,VWS V14.01,2013-02-16 13:04:00,
2013-02-16 08:09:00,18.1,15.4,30.06,SSW,207,2.0,2.0,89,0.00,,---,0.00,VWS V14.01,2013-02-16 13:09:00,
2013-02-16 08:14:00,18.2,15.5,30.06,WSW,242,1.0,3.0,89,0.00,,---,0.00,VWS V14.01,2013-02-16 13:14:00,
2013-02-16 08:19:00,18.4,15.7,30.06,SW,214,1.0,3.0,89,0.00,,---,0.00,VWS V14.01,2013-02-16 13:19:00,
2013-02-16 08:24:00,18.6,15.9,30.06,SW,214,2.0,3.0,89,0.00,,---,0.00,VWS V14.01,2013-02-16 13:24:00,
2013-02-16 08:29:00,18.7,16.0,30.06,SW,224,1.0,3.0,89,0.00,,---,0.00,VWS V14.01,2013-02-16 13:29:00,
2013-02-16 08:34:00,18.9,16.2,30.06,SW,221,2.0,3.0,89,0.00,,---,0.00,VWS V14.01,2013-02-16 13:34:00,
2013-02-16 08:39:00,19.0,16.3,30.06,SW,229,2.0,3.0,89,0.00,,---,0.00,VWS V14.01,2013-02-16 13:39:00,
2013-02-16 08:45:00,19.1,16.1,30.06,SW,232,2.0,4.0,88,0.00,,---,0.00,VWS V14.01,2013-02-16 13:45:00,
2013-02-16 08:49:00,19.2,16.2,30.06,SW,228,2.0,4.0,88,0.00,,---,0.00,VWS V14.01,2013-02-16 13:49:00,
2013-02-16 08:55:00,19.4,16.4,30.06,SW,221,4.0,5.0,88,0.00,,---,0.00,VWS V14.01,2013-02-16 13:55:00,
2013-02-16 09:00:00,19.7,16.7,30.06,SW,235,2.0,5.0,88,0.00,,---,0.00,VWS V14.01,2013-02-16 14:00:00,
2013-02-16 09:05:00,19.9,16.9,30.06,SW,219,3.0,5.0,88,0.00,,---,0.00,VWS V14.01,2013-02-16 14:05:00,
2013-02-16 09:10:00,20.0,16.8,30.06,SW,229,2.0,5.0,87,0.00,,---,0.00,VWS V14.01,2013-02-16 14:10:00,
2013-02-16 09:15:00,20.3,17.3,30.06,SW,219,2.0,5.0,88,0.00,,---,0.00,VWS V14.01,2013-02-16 14:15:00,
2013-02-16 09:20:00,20.5,17.0,30.06,SW,215,4.0,5.0,86,0.00,,---,0.00,VWS V14.01,2013-02-16 14:20:00,
2013-02-16 09:25:00,20.7,16.9,30.06,WSW,252,4.0,5.0,85,0.00,,---,0.00,VWS V14.01,2013-02-16 14:25:00,
2013-02-16 09:30:00,20.8,16.7,30.06,WSW,252,2.0,5.0,84,0.00,,---,0.00,VWS V14.01,2013-02-16 14:30:00,
2013-02-16 09:35:00,21.1,16.8,30.06,WSW,257,2.0,6.0,83,0.00,,---,0.00,VWS V14.01,2013-02-16 14:35:00,
2013-02-16 09:40:00,21.1,16.2,30.06,WNW,300,2.0,10.0,81,0.00,,---,0.00,VWS V14.01,2013-02-16 14:40:00,
2013-02-16 09:46:00,21.4,16.5,30.05,WSW,244,4.0,10.0,81,0.00,,---,0.00,VWS V14.01,2013-02-16 14:46:00,
2013-02-16 09:51:00,21.7,16.8,30.05,SW,219,3.0,10.0,81,0.00,,---,0.00,VWS V14.01,2013-02-16 14:51:00,
2013-02-16 09:56:00,21.7,16.5,30.05,WSW,238,6.0,10.0,80,0.00,,---,0.00,VWS V14.01,2013-02-16 14:56:00,
2013-02-16 10:01:00,21.8,16.0,30.05,WSW,255,3.0,10.0,78,0.00,,---,0.00,VWS V14.01,2013-02-16 15:01:00,
2013-02-16 10:06:00,22.0,15.3,30.05,West,269,5.0,7.0,75,0.00,,---,0.00,VWS V14.01,2013-02-16 15:06:00,
2013-02-16 10:11:00,21.9,15.5,30.05,WNW,283,2.0,7.0,76,0.00,,---,0.00,VWS V14.01,2013-02-16 15:11:00,
2013-02-16 10:16:00,22.2,16.4,30.05,SW,224,7.0,7.0,78,0.00,,---,0.00,VWS V14.01,2013-02-16 15:16:00,
2013-02-16 10:22:00,22.1,15.4,30.05,WSW,248,5.0,7.0,75,0.00,,---,0.00,VWS V14.01,2013-02-16 15:22:00,
2013-02-16 10:27:00,22.0,15.6,30.05,West,267,3.0,7.0,76,0.00,,---,0.00,VWS V14.01,2013-02-16 15:27:00,
2013-02-16 10:32:00,21.9,15.8,30.05,West,277,2.0,7.0,77,0.00,,---,0.00,VWS V14.01,2013-02-16 15:32:00,
2013-02-16 10:37:00,22.2,16.4,30.05,SW,226,4.0,7.0,78,0.00,,---,0.00,VWS V14.01,2013-02-16 15:37:00,
2013-02-16 10:42:00,22.1,16.0,30.05,West,260,5.0,7.0,77,0.00,,---,0.00,VWS V14.01,2013-02-16 15:42:00,
2013-02-16 10:47:00,22.1,16.0,30.05,WSW,250,3.0,7.0,77,0.00,,---,0.00,VWS V14.01,2013-02-16 15:47:00,
2013-02-16 10:52:00,22.2,16.4,30.05,West,276,3.0,7.0,78,0.00,,---,0.00,VWS V14.01,2013-02-16 15:52:00,
2013-02-16 10:57:00,22.4,16.6,30.05,West,278,3.0,7.0,78,0.00,,---,0.00,VWS V14.01,2013-02-16 15:57:00,
2013-02-16 11:02:00,22.8,16.7,30.04,SW,222,0.0,2.0,77,0.00,,---,0.00,VWS V14.01,2013-02-16 16:02:00,
2013-02-16 11:07:00,23.2,16.8,30.04,WSW,246,3.0,3.0,76,0.00,,---,0.00,VWS V14.01,2013-02-16 16:07:00,
2013-02-16 11:13:00,23.4,16.7,30.04,SW,236,3.0,5.0,75,0.00,,---,0.00,VWS V14.01,2013-02-16 16:13:00,
2013-02-16 11:18:00,23.2,16.2,30.04,WNW,300,3.0,7.0,74,0.00,,---,0.00,VWS V14.01,2013-02-16 16:18:00,
2013-02-16 11:23:00,23.0,16.3,30.04,WSW,255,9.0,10.0,75,0.00,,---,0.00,VWS V14.01,2013-02-16 16:23:00,
2013-02-16 11:28:00,22.9,15.6,30.04,West,281,4.0,10.0,73,0.00,,---,0.00,VWS V14.01,2013-02-16 16:28:00,
2013-02-16 11:33:00,22.7,15.1,30.04,West,270,6.0,10.0,72,0.00,,---,0.00,VWS V14.01,2013-02-16 16:33:00,
2013-02-16 11:38:00,22.7,15.1,30.04,WNW,283,3.0,10.0,72,0.00,,---,0.00,VWS V14.01,2013-02-16 16:38:00,
2013-02-16 11:43:00,22.8,15.5,30.04,WSW,243,8.0,10.0,73,0.00,,---,0.00,VWS V14.01,2013-02-16 16:43:00,
2013-02-16 11:48:00,22.9,15.9,30.04,West,271,4.0,10.0,74,0.00,,---,0.00,VWS V14.01,2013-02-16 16:48:00,
2013-02-16 11:53:00,22.6,15.6,30.04,WSW,248,3.0,10.0,74,0.00,,---,0.00,VWS V14.01,2013-02-16 16:53:00,
2013-02-16 11:58:00,22.6,15.6,30.04,West,269,4.0,10.0,74,0.00,,---,0.00,VWS V14.01,2013-02-16 16:58:00,
2013-02-16 12:04:00,22.6,15.6,30.04,NW,326,2.0,2.0,74,0.00,,---,0.00,VWS V14.01,2013-02-16 17:04:00,
2013-02-16 12:09:00,22.6,16.8,30.04,WSW,256,2.0,7.0,78,0.00,,---,0.00,VWS V14.01,2013-02-16 17:09:00,
2013-02-16 12:14:00,22.5,17.3,30.04,WNW,295,2.0,7.0,80,0.00,,---,0.00,VWS V14.01,2013-02-16 17:14:00,
2013-02-16 12:19:00,22.1,17.5,30.04,West,276,2.0,7.0,82,0.00,,---,0.00,VWS V14.01,2013-02-16 17:19:00,
2013-02-16 12:24:00,22.1,18.0,30.04,NNW,330,1.0,7.0,84,0.00,,---,0.00,VWS V14.01,2013-02-16 17:24:00,
2013-02-16 12:29:00,22.1,18.3,30.03,WNW,293,3.0,7.0,85,0.00,,---,0.00,VWS V14.01,2013-02-16 17:29:00,
2013-02-16 12:34:00,22.0,18.2,30.03,WNW,288,2.0,7.0,85,0.00,,---,0.00,VWS V14.01,2013-02-16 17:34:00,
2013-02-16 12:39:00,22.0,18.5,30.03,WSW,240,4.0,7.0,86,0.00,,---,0.00,VWS V14.01,2013-02-16 17:39:00,
2013-02-16 12:44:00,21.9,18.6,30.03,West,278,5.0,7.0,87,0.00,,---,0.00,VWS V14.01,2013-02-16 17:44:00,
2013-02-16 12:49:00,21.2,17.9,30.03,WSW,243,10.0,10.0,87,0.00,,---,0.00,VWS V14.01,2013-02-16 17:49:00,
2013-02-16 12:55:00,20.7,17.5,30.03,West,271,7.0,13.0,87,0.00,,---,0.00,VWS V14.01,2013-02-16 17:55:00,
2013-02-16 13:00:00,20.6,17.6,30.03,West,280,7.0,13.0,88,0.00,,---,0.00,VWS V14.01,2013-02-16 18:00:00,
2013-02-16 13:05:00,20.8,17.8,30.03,West,270,7.0,11.0,88,0.00,,---,0.00,VWS V14.01,2013-02-16 18:05:00,
2013-02-16 13:10:00,20.8,16.7,30.02,WNW,285,7.0,11.0,84,0.00,,---,0.00,VWS V14.01,2013-02-16 18:10:00,
2013-02-16 13:15:00,20.8,16.5,30.02,WSW,246,6.0,11.0,83,0.00,,---,0.00,VWS V14.01,2013-02-16 18:15:00,
2013-02-16 13:20:00,21.1,16.8,30.02,WNW,290,3.0,11.0,83,0.00,,---,0.00,VWS V14.01,2013-02-16 18:20:00,
2013-02-16 13:25:00,21.6,17.2,30.02,WSW,246,4.0,11.0,83,0.00,,---,0.00,VWS V14.01,2013-02-16 18:25:00,
2013-02-16 13:30:00,22.0,17.6,30.02,West,281,4.0,11.0,83,0.00,,---,0.00,VWS V14.01,2013-02-16 18:30:00,
2013-02-16 13:36:00,22.3,17.6,30.02,WNW,295,1.0,11.0,82,0.00,,---,0.00,VWS V14.01,2013-02-16 18:36:00,
2013-02-16 13:41:00,22.5,18.1,30.02,WSW,257,3.0,11.0,83,0.00,,---,0.00,VWS V14.01,2013-02-16 18:41:00,
2013-02-16 13:46:00,22.3,17.9,30.02,NW,314,4.0,11.0,83,0.00,,---,0.00,VWS V14.01,2013-02-16 18:46:00,
2013-02-16 13:51:00,22.2,17.5,30.01,NNW,332,4.0,11.0,82,0.00,,---,0.00,VWS V14.01,2013-02-16 18:51:00,
2013-02-16 13:56:00,22.4,17.2,30.01,West,276,3.0,11.0,80,0.00,,---,0.00,VWS V14.01,2013-02-16 18:56:00,
2013-02-16 14:01:00,22.7,16.0,30.01,WNW,285,2.0,12.0,75,0.00,,---,0.00,VWS V14.01,2013-02-16 19:01:00,
2013-02-16 14:06:00,23.0,14.7,30.01,North,9,6.0,9.0,70,0.00,,---,0.00,VWS V14.01,2013-02-16 19:06:00,
2013-02-16 14:11:00,23.3,13.6,30.01,WNW,300,6.0,12.0,66,0.00,,---,0.00,VWS V14.01,2013-02-16 19:11:00,
2013-02-16 14:16:00,23.6,13.6,30.01,NW,319,3.0,12.0,65,0.00,,---,0.00,VWS V14.01,2013-02-16 19:16:00,
2013-02-16 14:22:00,23.6,13.9,30.01,West,281,4.0,12.0,66,0.00,,---,0.00,VWS V14.01,2013-02-16 19:22:00,
2013-02-16 14:27:00,23.6,12.5,30.01,NW,318,5.0,12.0,62,0.00,,---,0.00,VWS V14.01,2013-02-16 19:27:00,
2013-02-16 14:32:00,23.6,12.1,30.00,WNW,294,3.0,12.0,61,0.00,,---,0.00,VWS V14.01,2013-02-16 19:32:00,
2013-02-16 14:37:00,23.8,13.4,30.00,NW,304,4.0,12.0,64,0.00,,---,0.00,VWS V14.01,2013-02-16 19:37:00,
2013-02-16 14:42:00,23.6,13.9,30.01,WNW,290,5.0,12.0,66,0.00,,---,0.00,VWS V14.01,2013-02-16 19:42:00,
2013-02-16 14:47:00,23.3,14.0,30.01,NNW,335,5.0,12.0,67,0.00,,---,0.00,VWS V14.01,2013-02-16 19:47:00,
2013-02-16 14:52:00,23.1,13.8,30.01,West,278,4.0,12.0,67,0.00,,---,0.00,VWS V14.01,2013-02-16 19:52:00,
2013-02-16 14:57:00,23.0,13.0,30.01,WNW,297,4.0,13.0,65,0.00,,---,0.00,VWS V14.01,2013-02-16 19:57:00,
2013-02-16 15:02:00,22.8,14.2,30.01,NNW,332,6.0,9.0,69,0.00,,---,0.00,VWS V14.01,2013-02-16 20:02:00,
2013-02-16 15:07:00,22.7,14.1,30.01,NW,323,6.0,10.0,69,0.00,,---,0.00,VWS V14.01,2013-02-16 20:07:00,
2013-02-16 15:13:00,22.6,14.0,30.01,NNW,332,6.0,12.0,69,0.00,,---,0.00,VWS V14.01,2013-02-16 20:13:00,
2013-02-16 15:18:00,22.6,14.0,30.01,NW,306,4.0,14.0,69,0.00,,---,0.00,VWS V14.01,2013-02-16 20:18:00,
2013-02-16 15:23:00,22.8,14.2,30.01,NNW,335,11.0,14.0,69,0.00,,---,0.00,VWS V14.01,2013-02-16 20:23:00,
2013-02-16 15:28:00,22.8,15.5,30.01,West,259,13.0,14.0,73,0.00,,---,0.00,VWS V14.01,2013-02-16 20:28:00,
2013-02-16 15:33:00,22.5,14.5,30.01,WNW,294,14.0,14.0,71,0.00,,---,0.00,VWS V14.01,2013-02-16 20:33:00,
2013-02-16 15:38:00,22.3,14.7,30.02,West,278,7.0,14.0,72,0.00,,---,0.00,VWS V14.01,2013-02-16 20:38:00,
2013-02-16 15:43:00,21.9,13.3,30.02,NW,321,2.0,14.0,69,0.00,,---,0.00,VWS V14.01,2013-02-16 20:43:00,
2013-02-16 15:48:00,22.1,13.8,30.02,NW,306,5.0,14.0,70,0.00,,---,0.00,VWS V14.01,2013-02-16 20:48:00,
2013-02-16 15:53:00,22.2,12.6,30.02,West,270,8.0,14.0,66,0.00,,---,0.00,VWS V14.01,2013-02-16 20:53:00,
2013-02-16 15:59:00,22.0,12.7,30.02,West,278,5.0,14.0,67,0.00,,---,0.00,VWS V14.01,2013-02-16 20:59:00,
2013-02-16 16:04:00,22.1,12.8,30.02,West,266,6.0,11.0,67,0.00,,---,0.00,VWS V14.01,2013-02-16 21:04:00,
2013-02-16 16:09:00,22.4,13.1,30.02,WSW,240,7.0,11.0,67,0.00,,---,0.00,VWS V14.01,2013-02-16 21:09:00,
2013-02-16 16:14:00,22.5,12.2,30.02,WNW,295,3.0,11.0,64,0.00,,---,0.00,VWS V14.01,2013-02-16 21:14:00,
2013-02-16 16:19:00,22.5,11.8,30.03,NNW,340,6.0,11.0,63,0.00,,---,0.00,VWS V14.01,2013-02-16 21:19:00,
2013-02-16 16:24:00,22.3,11.3,30.03,West,267,4.0,11.0,62,0.00,,---,0.00,VWS V14.01,2013-02-16 21:24:00,
2013-02-16 16:29:00,22.0,11.4,30.03,NW,319,4.0,11.0,63,0.00,,---,0.00,VWS V14.01,2013-02-16 21:29:00,
2013-02-16 16:34:00,22.0,11.4,30.03,WNW,297,6.0,11.0,63,0.00,,---,0.00,VWS V14.01,2013-02-16 21:34:00,
2013-02-16 16:39:00,21.9,10.5,30.03,WNW,302,7.0,11.0,61,0.00,,---,0.00,VWS V14.01,2013-02-16 21:39:00,
2013-02-16 16:45:00,21.7,10.0,30.03,West,280,5.0,13.0,60,0.00,,---,0.00,VWS V14.01,2013-02-16 21:45:00,
2013-02-16 16:50:00,21.7,10.0,30.04,NW,314,6.0,13.0,60,0.00,,---,0.00,VWS V14.01,2013-02-16 21:50:00,
2013-02-16 16:55:00,21.6,10.2,30.04,NW,309,6.0,13.0,61,0.00,,---,0.00,VWS V14.01,2013-02-16 21:55:00,
2013-02-16 17:00:00,21.6,11.0,30.04,WNW,300,2.0,13.0,63,0.00,,---,0.00,VWS V14.01,2013-02-16 22:00:00,
2013-02-16 17:05:00,21.1,13.5,30.04,NW,308,4.0,9.0,72,0.00,,---,0.00,VWS V14.01,2013-02-16 22:05:00,
2013-02-16 17:10:00,20.3,14.6,30.04,WNW,298,5.0,10.0,78,0.00,,---,0.00,VWS V14.01,2013-02-16 22:10:00,
2013-02-16 17:15:00,19.8,14.4,30.05,NNW,333,2.0,10.0,79,0.00,,---,0.00,VWS V14.01,2013-02-16 22:15:00,
2013-02-16 17:20:00,19.6,14.4,30.05,NW,307,2.0,10.0,80,0.00,,---,0.00,VWS V14.01,2013-02-16 22:20:00,
2013-02-16 17:25:00,19.4,14.0,30.05,NW,315,4.0,10.0,79,0.00,,---,0.00,VWS V14.01,2013-02-16 22:25:00,
2013-02-16 17:31:00,19.3,14.1,30.05,NW,310,6.0,10.0,80,0.00,,---,0.00,VWS V14.01,2013-02-16 22:31:00,
2013-02-16 17:36:00,19.1,14.2,30.05,NW,304,4.0,10.0,81,0.00,,---,0.00,VWS V14.01,2013-02-16 22:36:00,
2013-02-16 17:41:00,18.6,14.6,30.05,WNW,289,4.0,10.0,84,0.00,,---,0.00,VWS V14.01,2013-02-16 22:41:00,
2013-02-16 17:46:00,18.4,14.9,30.05,WNW,288,1.0,10.0,86,0.00,,---,0.00,VWS V14.01,2013-02-16 22:46:00,
2013-02-16 17:51:00,18.4,15.2,30.06,NW,314,3.0,10.0,87,0.00,,---,0.00,VWS V14.01,2013-02-16 22:51:00,
2013-02-16 17:56:00,18.5,15.3,30.06,WNW,297,1.0,10.0,87,0.00,,---,0.00,VWS V14.01,2013-02-16 22:56:00,
2013-02-16 18:01:00,18.5,15.6,30.06,NNE,31,1.0,10.0,88,0.00,,---,0.00,VWS V14.01,2013-02-16 23:01:00,
2013-02-16 18:06:00,18.5,15.6,30.06,NW,316,1.0,8.0,88,0.00,,---,0.00,VWS V14.01,2013-02-16 23:06:00,
2013-02-16 18:11:00,18.4,15.4,30.06,West,281,1.0,8.0,88,0.00,,---,0.00,VWS V14.01,2013-02-16 23:11:00,
2013-02-16 18:16:00,18.3,15.4,30.06,NNW,347,2.0,8.0,88,0.00,,---,0.00,VWS V14.01,2013-02-16 23:16:00,
2013-02-16 18:22:00,18.1,15.1,30.07,NNW,344,7.0,8.0,88,0.00,,---,0.00,VWS V14.01,2013-02-16 23:22:00,
2013-02-16 18:27:00,18.0,14.8,30.07,NW,321,2.0,8.0,87,0.00,,---,0.00,VWS V14.01,2013-02-16 23:27:00,
2013-02-16 18:32:00,17.9,14.2,30.07,NNW,338,1.0,8.0,85,0.00,,---,0.00,VWS V14.01,2013-02-16 23:32:00,
2013-02-16 18:37:00,17.7,13.7,30.07,NNW,328,2.0,8.0,84,0.00,,---,0.00,VWS V14.01,2013-02-16 23:37:00,
2013-02-16 18:42:00,17.5,13.5,30.07,North,6,1.0,8.0,84,0.00,,---,0.00,VWS V14.01,2013-02-16 23:42:00,
2013-02-16 18:47:00,17.3,13.3,30.07,North,6,0.0,8.0,84,0.00,,---,0.00,VWS V14.01,2013-02-16 23:47:00,
2013-02-16 18:52:00,17.1,13.1,30.08,WNW,283,0.0,8.0,84,0.00,,---,0.00,VWS V14.01,2013-02-16 23:52:00,
2013-02-16 18:57:00,16.8,12.8,30.08,West,281,0.0,8.0,84,0.00,,---,0.00,VWS V14.01,2013-02-16 23:57:00,
2013-02-16 19:03:00,16.7,13.0,30.08,WNW,283,0.0,1.0,85,0.00,,---,0.00,VWS V14.01,2013-02-17 00:03:00,
2013-02-16 19:08:00,16.5,12.8,30.08,WNW,302,0.0,2.0,85,0.00,,---,0.00,VWS V14.01,2013-02-17 00:08:00,
2013-02-16 19:13:00,16.3,12.6,30.08,WNW,302,0.0,2.0,85,0.00,,---,0.00,VWS V14.01,2013-02-17 00:13:00,
2013-02-16 19:18:00,16.1,12.7,30.08,West,264,0.0,2.0,86,0.00,,---,0.00,VWS V14.01,2013-02-17 00:18:00,
2013-02-16 19:23:00,16.0,12.6,30.08,WSW,238,0.0,2.0,86,0.00,,---,0.00,VWS V14.01,2013-02-17 00:23:00,
2013-02-16 19:28:00,15.8,12.4,30.08,WSW,257,0.0,2.0,86,0.00,,---,0.00,VWS V14.01,2013-02-17 00:28:00,
2013-02-16 19:33:00,15.6,12.2,30.08,West,259,0.0,2.0,86,0.00,,---,0.00,VWS V14.01,2013-02-17 00:33:00,
2013-02-16 19:38:00,15.5,12.3,30.08,West,276,0.0,2.0,87,0.00,,---,0.00,VWS V14.01,2013-02-17 00:38:00,
2013-02-16 19:43:00,15.4,12.2,30.08,WSW,252,1.0,2.0,87,0.00,,---,0.00,VWS V14.01,2013-02-17 00:43:00,
2013-02-16 19:49:00,15.4,12.0,30.08,West,274,1.0,2.0,86,0.00,,---,0.00,VWS V14.01,2013-02-17 00:49:00,
2013-02-16 19:54:00,15.4,12.0,30.09,WNW,284,2.0,3.0,86,0.00,,---,0.00,VWS V14.01,2013-02-17 00:54:00,
2013-02-16 19:59:00,15.6,12.2,30.09,WNW,285,1.0,3.0,86,0.00,,---,0.00,VWS V14.01,2013-02-17 00:59:00,
2013-02-16 20:04:00,15.7,12.0,30.09,West,269,1.0,1.0,85,0.00,,---,0.00,VWS V14.01,2013-02-17 01:04:00,
2013-02-16 20:09:00,15.7,12.0,30.09,WNW,288,1.0,3.0,85,0.00,,---,0.00,VWS V14.01,2013-02-17 01:09:00,
2013-02-16 20:14:00,15.8,12.1,30.09,WNW,288,4.0,4.0,85,0.00,,---,0.00,VWS V14.01,2013-02-17 01:14:00,
2013-02-16 20:19:00,15.7,11.7,30.09,WNW,295,1.0,4.0,84,0.00,,---,0.00,VWS V14.01,2013-02-17 01:19:00,
2013-02-16 20:24:00,15.6,11.6,30.09,WNW,294,0.0,4.0,84,0.00,,---,0.00,VWS V14.01,2013-02-17 01:24:00,
2013-02-16 20:30:00,15.5,11.8,30.09,WNW,284,1.0,4.0,85,0.00,,---,0.00,VWS V14.01,2013-02-17 01:30:00,
2013-02-16 20:35:00,15.3,11.6,30.09,WNW,287,0.0,4.0,85,0.00,,---,0.00,VWS V14.01,2013-02-17 01:35:00,
2013-02-16 20:40:00,15.1,11.4,30.09,WNW,284,0.0,4.0,85,0.00,,---,0.00,VWS V14.01,2013-02-17 01:40:00,
2013-02-16 20:45:00,14.9,11.2,30.09,WNW,284,0.0,4.0,85,0.00,,---,0.00,VWS V14.01,2013-02-17 01:45:00,
2013-02-16 20:50:00,14.8,11.4,30.09,WNW,284,0.0,4.0,86,0.00,,---,0.00,VWS V14.01,2013-02-17 01:50:00,
2013-02-16 20:55:00,14.7,11.3,30.09,WNW,285,0.0,4.0,86,0.00,,---,0.00,VWS V14.01,2013-02-17 01:55:00,
2013-02-16 21:00:00,14.5,11.1,30.09,WNW,285,0.0,4.0,86,0.00,,---,0.00,VWS V14.01,2013-02-17 02:00:00,
2013-02-16 21:05:00,14.4,11.2,30.09,West,273,1.0,2.0,87,0.00,,---,0.00,VWS V14.01,2013-02-17 02:05:00,
2013-02-16 21:10:00,14.4,11.2,30.09,WNW,284,1.0,2.0,87,0.00,,---,0.00,VWS V14.01,2013-02-17 02:10:00,
2013-02-16 21:16:00,14.3,11.1,30.09,West,274,1.0,2.0,87,0.00,,---,0.00,VWS V14.01,2013-02-17 02:16:00,
2013-02-16 21:21:00,14.2,11.1,30.09,West,280,0.0,2.0,87,0.00,,---,0.00,VWS V14.01,2013-02-17 02:21:00,
2013-02-16 21:26:00,14.2,11.1,30.09,WNW,284,2.0,3.0,87,0.00,,---,0.00,VWS V14.01,2013-02-17 02:26:00,
2013-02-16 21:31:00,14.2,11.3,30.09,WNW,298,1.0,3.0,88,0.00,,---,0.00,VWS V14.01,2013-02-17 02:31:00,
2013-02-16 21:36:00,14.3,11.4,30.09,WNW,290,3.0,3.0,88,0.00,,---,0.00,VWS V14.01,2013-02-17 02:36:00,
2013-02-16 21:41:00,14.4,11.5,30.09,WNW,293,1.0,3.0,88,0.00,,---,0.00,VWS V14.01,2013-02-17 02:41:00,
2013-02-16 21:46:00,14.4,11.2,30.09,WNW,283,1.0,3.0,87,0.00,,---,0.00,VWS V14.01,2013-02-17 02:46:00,
2013-02-16 21:51:00,14.3,11.1,30.09,WNW,285,2.0,3.0,87,0.00,,---,0.00,VWS V14.01,2013-02-17 02:51:00,
2013-02-16 21:56:00,14.3,11.1,30.09,WNW,297,1.0,3.0,87,0.00,,---,0.00,VWS V14.01,2013-02-17 02:56:00,
2013-02-16 22:02:00,14.3,11.1,30.09,West,264,1.0,1.0,87,0.00,,---,0.00,VWS V14.01,2013-02-17 03:02:00,
2013-02-16 22:07:00,14.3,11.1,30.09,WNW,284,1.0,2.0,87,0.00,,---,0.00,VWS V14.01,2013-02-17 03:07:00,
2013-02-16 22:12:00,14.2,11.1,30.10,NW,323,0.0,3.0,87,0.00,,---,0.00,VWS V14.01,2013-02-17 03:12:00,
2013-02-16 22:17:00,14.1,10.9,30.10,North,350,1.0,3.0,87,0.00,,---,0.00,VWS V14.01,2013-02-17 03:17:00,
2013-02-16 22:22:00,14.1,11.2,30.10,WNW,293,1.0,3.0,88,0.00,,---,0.00,VWS V14.01,2013-02-17 03:22:00,
2013-02-16 22:27:00,14.1,11.2,30.10,NW,318,0.0,3.0,88,0.00,,---,0.00,VWS V14.01,2013-02-17 03:27:00,
2013-02-16 22:32:00,14.1,11.2,30.10,WNW,302,0.0,3.0,88,0.00,,---,0.00,VWS V14.01,2013-02-17 03:32:00,
2013-02-16 22:37:00,14.1,11.2,30.10,West,277,0.0,3.0,88,0.00,,---,0.00,VWS V14.01,2013-02-17 03:37:00,
2013-02-16 22:42:00,13.9,11.0,30.10,WNW,290,0.0,3.0,88,0.00,,---,0.00,VWS V14.01,2013-02-17 03:42:00,
2013-02-16 22:47:00,13.9,11.0,30.10,West,266,2.0,3.0,88,0.00,,---,0.00,VWS V14.01,2013-02-17 03:47:00,
2013-02-16 22:52:00,13.8,10.9,30.10,WSW,243,2.0,3.0,88,0.00,,---,0.00,VWS V14.01,2013-02-17 03:52:00,
2013-02-16 22:57:00,13.8,10.9,30.10,WNW,291,1.0,3.0,88,0.00,,---,0.00,VWS V14.01,2013-02-17 03:57:00,
2013-02-16 23:03:00,13.8,10.9,30.10,NW,306,1.0,2.0,88,0.00,,---,0.00,VWS V14.01,2013-02-17 04:03:00,
2013-02-16 23:08:00,14.0,11.4,30.09,WNW,298,0.0,3.0,89,0.00,,---,0.00,VWS V14.01,2013-02-17 04:08:00,
2013-02-16 23:13:00,14.0,11.1,30.09,NW,304,1.0,3.0,88,0.00,,---,0.00,VWS V14.01,2013-02-17 04:13:00,
2013-02-16 23:18:00,14.1,11.2,30.09,WNW,295,2.0,3.0,88,0.00,,---,0.00,VWS V14.01,2013-02-17 04:18:00,
2013-02-16 23:23:00,14.3,11.7,30.09,WNW,297,1.0,4.0,89,0.00,,---,0.00,VWS V14.01,2013-02-17 04:23:00,
2013-02-16 23:28:00,14.4,11.8,30.09,NW,314,1.0,4.0,89,0.00,,---,0.00,VWS V14.01,2013-02-17 04:28:00,
2013-02-16 23:33:00,14.5,11.9,30.09,NW,323,0.0,4.0,89,0.00,,---,0.00,VWS V14.01,2013-02-17 04:33:00,
2013-02-16 23:38:00,14.5,11.9,30.09,WNW,294,2.0,4.0,89,0.00,,---,0.00,VWS V14.01,2013-02-17 04:38:00,
2013-02-16 23:43:00,14.5,11.9,30.09,NNW,332,1.0,4.0,89,0.00,,---,0.00,VWS V14.01,2013-02-17 04:43:00,
2013-02-16 23:49:00,14.5,11.9,30.09,WNW,288,2.0,4.0,89,0.00,,---,0.00,VWS V14.01,2013-02-17 04:49:00,
2013-02-16 23:54:00,14.7,12.1,30.09,WNW,295,2.0,5.0,89,0.00,,---,0.00,VWS V14.01,2013-02-17 04:54:00,
2013-02-16 23:59:00,14.8,12.4,30.09,WNW,287,3.0,6.0,90,0.00,,---,0.00,VWS V14.01,2013-02-17 04:59:00,